createdAt,value
2019-03-05T00:01:31.695Z,6.92
2019-03-05T00:03:59.387Z,6.97
2019-03-05T00:06:27.301Z,6.97
2019-03-05T00:08:55.077Z,7.03
2019-03-05T00:11:22.618Z,7.05
2019-03-05T00:13:50.461Z,7.08
2019-03-05T00:16:18.193Z,7.11
2019-03-05T00:18:46.085Z,7.12
2019-03-05T00:21:14.010Z,7.12
2019-03-05T00:23:41.573Z,7.13
2019-03-05T00:26:09.561Z,7.14
2019-03-05T00:28:37.490Z,7.15
2019-03-05T00:31:05.115Z,7.12
2019-03-05T00:33:32.993Z,7.12
2019-03-05T00:36:00.658Z,7.08
2019-03-05T00:38:28.489Z,7.10
2019-03-05T00:40:56.045Z,7.10
2019-03-05T00:43:23.697Z,7.11
2019-03-05T00:45:51.354Z,7.13
2019-03-05T00:48:19.237Z,7.15
2019-03-05T00:50:46.877Z,7.17
2019-03-05T00:53:14.526Z,7.18
2019-03-05T00:55:42.431Z,7.18
2019-03-05T00:58:10.120Z,7.20
2019-03-05T01:00:37.745Z,7.22
2019-03-05T01:03:05.576Z,7.25
2019-03-05T01:05:33.207Z,7.25
2019-03-05T01:08:00.785Z,7.23
2019-03-05T01:10:29.304Z,7.22
2019-03-05T01:12:56.898Z,7.20
2019-03-05T01:15:24.616Z,7.20
2019-03-05T01:17:52.485Z,7.20
2019-03-05T01:20:20.106Z,7.20
2019-03-05T01:22:47.697Z,7.20
2019-03-05T01:25:15.535Z,7.21
2019-03-05T01:27:43.274Z,7.20
2019-03-05T01:30:10.926Z,7.22
2019-03-05T01:32:54.645Z,7.22
2019-03-05T01:35:30.267Z,7.21
2019-03-05T01:37:57.819Z,7.17
2019-03-05T01:40:50.616Z,7.17
2019-03-05T01:43:18.271Z,7.13
2019-03-05T01:45:45.898Z,7.09
2019-03-05T01:48:16.852Z,7.07
2019-03-05T01:50:44.581Z,7.07
2019-03-05T01:53:12.605Z,7.06
2019-03-05T01:55:40.538Z,7.06
2019-03-05T01:58:08.136Z,7.07
2019-03-05T02:00:35.821Z,7.11
2019-03-05T02:03:03.814Z,7.11
2019-03-05T02:05:31.793Z,7.15
2019-03-05T02:07:59.439Z,7.16
2019-03-05T02:10:27.070Z,7.15
2019-03-05T02:12:55.012Z,7.16
2019-03-05T02:15:22.572Z,7.15
2019-03-05T02:17:50.120Z,7.12
2019-03-05T02:20:17.730Z,7.12
2019-03-05T02:22:45.811Z,7.04
2019-03-05T02:25:13.475Z,7.00
2019-03-05T02:27:41.103Z,6.94
2019-03-05T02:30:08.828Z,6.84
2019-03-05T02:32:36.760Z,6.77
2019-03-05T02:35:04.438Z,6.77
2019-03-05T02:37:32.301Z,6.69
2019-03-05T02:39:59.942Z,6.63
2019-03-05T02:42:27.551Z,6.57
2019-03-05T02:44:55.495Z,6.56
2019-03-05T02:47:23.208Z,6.55
2019-03-05T02:49:51.141Z,6.55
2019-03-05T02:52:19.037Z,6.55
2019-03-05T02:54:46.692Z,6.55
2019-03-05T02:57:14.277Z,6.55
2019-03-05T02:59:42.316Z,6.54
2019-03-05T03:02:28.647Z,6.50
2019-03-05T03:05:03.007Z,6.50
2019-03-05T03:07:30.666Z,6.45
2019-03-05T03:09:58.498Z,6.45
2019-03-05T03:12:26.153Z,6.46
2019-03-05T03:14:53.699Z,6.44
2019-03-05T03:17:21.361Z,6.44
2019-03-05T03:19:49.279Z,6.40
2019-03-05T03:22:16.832Z,6.39
2019-03-05T03:24:48.190Z,6.39
2019-03-05T03:27:18.725Z,6.39
2019-03-05T03:29:46.368Z,6.39
2019-03-05T03:32:14.033Z,6.39
2019-03-05T03:34:41.830Z,6.39
2019-03-05T03:37:09.763Z,6.39
2019-03-05T03:39:37.322Z,6.39
2019-03-05T03:42:04.942Z,6.40
2019-03-05T03:44:32.880Z,6.40
2019-03-05T03:47:00.446Z,6.41
2019-03-05T03:49:28.111Z,6.42
2019-03-05T03:51:55.975Z,6.42
2019-03-05T03:54:23.609Z,6.42
2019-03-05T03:56:51.175Z,6.42
2019-03-05T03:59:18.777Z,6.41
2019-03-05T04:01:46.622Z,6.41
2019-03-05T04:04:14.217Z,6.41
2019-03-05T04:06:41.832Z,6.39
2019-03-05T04:09:09.601Z,6.36
2019-03-05T04:11:37.066Z,6.34
2019-03-05T04:14:04.544Z,6.32
2019-03-05T04:16:32.067Z,6.32
2019-03-05T04:19:04.366Z,6.31
2019-03-05T04:21:32.626Z,6.31
2019-03-05T04:24:00.173Z,6.32
2019-03-05T04:26:27.734Z,6.31
2019-03-05T04:28:55.472Z,6.33
2019-03-05T04:31:23.049Z,6.33
2019-03-05T04:33:50.591Z,6.37
2019-03-05T04:36:18.411Z,6.37
2019-03-05T04:38:46.008Z,6.43
2019-03-05T04:41:13.512Z,6.43
2019-03-05T04:43:41.344Z,6.48
2019-03-05T04:46:27.739Z,6.47
2019-03-05T04:49:12.817Z,6.47
2019-03-05T04:51:52.878Z,6.47
2019-03-05T04:54:20.466Z,6.47
2019-03-05T04:56:48.278Z,6.46
2019-03-05T04:59:17.825Z,6.47
2019-03-05T05:01:49.134Z,6.48
2019-03-05T05:04:14.566Z,6.48
2019-03-05T05:06:42.177Z,6.51
2019-03-05T05:09:09.752Z,6.49
2019-03-05T05:11:37.302Z,6.49
2019-03-05T05:14:05.153Z,6.46
2019-03-05T05:16:32.648Z,6.46
2019-03-05T05:19:00.159Z,6.46
2019-03-05T05:21:27.942Z,6.46
2019-03-05T05:23:55.472Z,6.45
2019-03-05T05:26:23.067Z,6.45
2019-03-05T05:28:50.595Z,6.45
2019-03-05T05:31:21.185Z,6.44
2019-03-05T05:33:48.671Z,6.45
2019-03-05T05:36:16.165Z,6.45
2019-03-05T05:38:43.952Z,6.46
2019-03-05T05:41:11.764Z,6.46
2019-03-05T05:43:39.347Z,6.46
2019-03-05T05:46:07.171Z,6.47
2019-03-05T05:48:34.773Z,6.47
2019-03-05T05:51:02.299Z,6.47
2019-03-05T05:53:30.081Z,6.47
2019-03-05T05:55:59.294Z,6.48
2019-03-05T05:58:26.821Z,6.48
2019-03-05T06:00:57.920Z,6.48
2019-03-05T06:03:25.458Z,6.48
2019-03-05T06:05:53.015Z,6.49
2019-03-05T06:08:20.732Z,6.50
2019-03-05T06:10:52.972Z,6.49
2019-03-05T06:13:20.242Z,6.50
2019-03-05T06:15:48.112Z,6.50
2019-03-05T06:18:15.976Z,6.51
2019-03-05T06:20:43.551Z,6.51
2019-03-05T06:23:11.392Z,6.52
2019-03-05T06:25:38.841Z,6.54
2019-03-05T06:28:06.401Z,6.54
2019-03-05T06:30:34.140Z,6.55
2019-03-05T06:33:01.720Z,6.57
2019-03-05T06:35:29.173Z,6.57
2019-03-05T06:37:57.000Z,6.57
2019-03-05T06:40:24.931Z,6.59
2019-03-05T06:42:52.523Z,6.59
2019-03-05T06:45:20.353Z,6.57
2019-03-05T06:47:47.960Z,6.57
2019-03-05T06:50:19.269Z,6.49
2019-03-05T06:52:47.028Z,6.43
2019-03-05T06:55:14.639Z,6.37
2019-03-05T06:57:42.186Z,6.37
2019-03-05T07:00:10.074Z,6.33
2019-03-05T07:02:37.622Z,6.25
2019-03-05T07:05:05.280Z,6.19
2019-03-05T07:07:33.147Z,6.14
2019-03-05T07:10:00.698Z,6.10
2019-03-05T07:12:28.325Z,6.08
2019-03-05T07:14:56.152Z,6.07
2019-03-05T07:17:23.769Z,6.07
2019-03-05T07:19:58.028Z,6.07
2019-03-05T07:22:21.300Z,6.08
2019-03-05T07:24:48.856Z,6.06
2019-03-05T07:27:16.535Z,6.06
2019-03-05T07:29:44.373Z,6.02
2019-03-05T07:32:12.193Z,6.02
2019-03-05T07:34:42.083Z,5.99
2019-03-05T07:37:11.361Z,5.96
2019-03-05T07:39:38.952Z,5.97
2019-03-05T07:42:09.256Z,5.98
2019-03-05T07:44:38.368Z,5.98
2019-03-05T07:47:09.267Z,6.02
2019-03-05T07:49:43.934Z,6.06
2019-03-05T07:52:08.159Z,6.09
2019-03-05T07:54:35.741Z,6.09
2019-03-05T07:57:03.389Z,6.09
2019-03-05T07:59:31.272Z,6.05
2019-03-05T08:01:58.834Z,5.97
2019-03-05T08:04:26.441Z,5.97
2019-03-05T08:06:54.389Z,5.92
2019-03-05T08:09:21.962Z,5.86
2019-03-05T08:11:51.854Z,5.78
2019-03-05T08:14:19.704Z,5.68
2019-03-05T08:16:47.373Z,5.63
2019-03-05T08:19:15.397Z,5.63
2019-03-05T08:21:43.249Z,5.49
2019-03-05T08:24:10.846Z,5.49
2019-03-05T08:26:38.442Z,5.38
2019-03-05T08:29:09.199Z,5.32
2019-03-05T08:31:36.807Z,5.25
2019-03-05T08:34:04.351Z,5.25
2019-03-05T08:36:32.270Z,5.21
2019-03-05T08:38:59.916Z,5.17
2019-03-05T08:41:27.508Z,5.17
2019-03-05T08:43:57.052Z,5.17
2019-03-05T08:46:24.739Z,5.17
2019-03-05T08:48:52.309Z,5.15
2019-03-05T08:51:23.031Z,5.12
2019-03-05T08:53:50.620Z,5.13
2019-03-05T08:56:19.542Z,5.12
2019-03-05T08:58:47.383Z,5.05
2019-03-05T09:01:26.222Z,5.05
2019-03-05T09:03:53.989Z,5.05
2019-03-05T09:06:21.725Z,5.02
2019-03-05T09:08:49.427Z,5.02
2019-03-05T09:11:17.405Z,4.97
2019-03-05T09:13:45.403Z,4.98
2019-03-05T09:16:12.949Z,4.99
2019-03-05T09:18:43.821Z,5.01
2019-03-05T09:21:11.505Z,5.01
2019-03-05T09:23:39.295Z,5.04
2019-03-05T09:26:09.480Z,5.11
2019-03-05T09:28:37.117Z,5.24
2019-03-05T09:31:04.640Z,5.32
2019-03-05T09:33:32.426Z,5.32
2019-03-05T09:36:00.027Z,5.35
2019-03-05T09:38:30.434Z,5.40
2019-03-05T09:40:58.243Z,5.46
2019-03-05T09:43:27.978Z,5.53
2019-03-05T09:45:55.645Z,5.62
2019-03-05T09:48:27.949Z,5.71
2019-03-05T09:50:55.815Z,5.71
2019-03-05T09:53:23.517Z,5.77
2019-03-05T09:55:55.090Z,5.85
2019-03-05T09:58:22.686Z,5.94
2019-03-05T10:00:50.302Z,5.94
2019-03-05T10:03:18.555Z,6.15
2019-03-05T10:05:46.241Z,6.32
2019-03-05T10:08:16.643Z,6.72
2019-03-05T10:10:46.597Z,7.27
2019-03-05T10:13:18.784Z,7.27
2019-03-05T10:15:46.746Z,7.83
2019-03-05T10:18:14.736Z,8.30
2019-03-05T10:20:42.357Z,8.30
2019-03-05T10:23:09.962Z,8.15
2019-03-05T10:25:37.812Z,8.08
2019-03-05T10:28:05.713Z,8.08
2019-03-05T10:30:33.290Z,7.94
2019-03-05T10:33:02.985Z,7.60
2019-03-05T10:35:30.607Z,7.42
2019-03-05T10:37:58.205Z,7.31
2019-03-05T10:40:28.896Z,7.31
2019-03-05T10:43:07.753Z,7.23
2019-03-05T10:45:25.772Z,7.19
2019-03-05T10:47:53.597Z,7.19
2019-03-05T10:50:22.868Z,7.21
2019-03-05T10:52:52.422Z,7.17
2019-03-05T10:55:26.223Z,7.17
2019-03-05T10:57:51.734Z,7.14
2019-03-05T11:00:19.414Z,7.09
2019-03-05T11:02:50.251Z,7.06
2019-03-05T11:05:18.218Z,7.03
2019-03-05T11:07:46.252Z,7.11
2019-03-05T11:10:14.198Z,7.31
2019-03-05T11:12:44.645Z,7.68
2019-03-05T11:15:12.240Z,7.68
2019-03-05T11:17:40.088Z,8.55
2019-03-05T11:20:07.747Z,8.74
2019-03-05T11:22:43.111Z,8.71
2019-03-05T11:25:11.261Z,8.43
2019-03-05T11:27:45.999Z,8.43
2019-03-05T11:30:14.120Z,8.39
2019-03-05T11:32:42.025Z,8.38
2019-03-05T11:35:12.681Z,9.43
2019-03-05T11:37:41.278Z,9.43
2019-03-05T11:40:20.663Z,9.62
2019-03-05T11:42:41.424Z,9.68
2019-03-05T11:45:11.623Z,9.87
2019-03-05T11:47:38.481Z,10.99
2019-03-05T11:50:07.472Z,10.68
2019-03-05T11:52:43.776Z,10.30
2019-03-05T11:55:11.729Z,9.80
2019-03-05T11:57:39.354Z,9.41
2019-03-05T12:00:07.407Z,9.41
2019-03-05T12:02:36.941Z,8.98
2019-03-05T12:05:04.530Z,8.98
2019-03-05T12:07:32.120Z,8.81
2019-03-05T12:10:03.073Z,8.67
2019-03-05T12:12:30.805Z,8.67
2019-03-05T12:14:58.427Z,8.45
2019-03-05T12:17:28.164Z,8.45
2019-03-05T12:19:55.746Z,11.04
2019-03-05T12:22:23.375Z,11.04
2019-03-05T12:24:51.177Z,12.12
2019-03-05T12:27:18.775Z,11.48
2019-03-05T12:29:52.336Z,11.48
2019-03-05T12:32:22.848Z,12.45
2019-03-05T12:34:50.430Z,13.44
2019-03-05T12:37:24.447Z,13.44
2019-03-05T12:39:52.065Z,13.44
2019-03-05T12:42:19.716Z,12.37
2019-03-05T12:44:50.310Z,12.21
2019-03-05T12:47:18.196Z,12.21
2019-03-05T12:49:45.806Z,13.47
2019-03-05T12:52:16.215Z,13.98
2019-03-05T12:54:43.836Z,14.65
2019-03-05T12:57:14.055Z,14.88
2019-03-05T12:59:41.822Z,14.88
2019-03-05T13:02:09.637Z,14.17
2019-03-05T13:04:39.053Z,12.71
2019-03-05T13:07:06.679Z,12.71
2019-03-05T13:09:34.314Z,12.42
2019-03-05T13:12:02.269Z,12.54
2019-03-05T13:14:29.908Z,12.54
2019-03-05T13:16:57.549Z,12.37
2019-03-05T13:19:25.464Z,12.37
2019-03-05T13:21:53.142Z,12.03
2019-03-05T13:24:20.979Z,11.77
2019-03-05T13:26:48.798Z,11.64
2019-03-05T13:29:20.642Z,11.65
2019-03-05T13:31:48.263Z,11.71
2019-03-05T13:34:17.800Z,11.18
2019-03-05T13:36:46.936Z,11.18
2019-03-05T13:39:18.077Z,11.05
2019-03-05T13:41:46.453Z,10.86
2019-03-05T13:44:16.743Z,10.86
2019-03-05T13:46:44.453Z,10.75
2019-03-05T13:49:14.369Z,10.62
2019-03-05T13:51:43.112Z,10.46
2019-03-05T13:54:10.835Z,10.23
2019-03-05T13:56:42.345Z,10.23
2019-03-05T13:59:08.008Z,10.41
2019-03-05T14:01:35.589Z,10.75
2019-03-05T14:04:03.447Z,10.93
2019-03-05T14:06:31.106Z,10.96
2019-03-05T14:08:58.749Z,11.22
2019-03-05T14:11:26.613Z,11.15
2019-03-05T14:13:58.795Z,11.15
2019-03-05T14:16:27.726Z,10.80
2019-03-05T14:18:55.613Z,10.41
2019-03-05T14:21:23.234Z,10.12
2019-03-05T14:23:53.093Z,9.79
2019-03-05T14:26:21.019Z,9.79
2019-03-05T14:28:48.532Z,9.68
2019-03-05T14:31:16.190Z,9.83
2019-03-05T14:33:47.016Z,9.78
2019-03-05T14:36:14.581Z,9.56
2019-03-05T14:38:44.255Z,9.54
2019-03-05T14:41:13.232Z,9.73
2019-03-05T14:43:40.936Z,9.95
2019-03-05T14:46:10.786Z,10.16
2019-03-05T14:48:40.973Z,10.16
2019-03-05T14:51:08.688Z,10.92
2019-03-05T14:53:37.326Z,10.92
2019-03-05T14:56:12.009Z,11.43
2019-03-05T14:58:42.137Z,11.43
2019-03-05T15:01:09.843Z,11.55
2019-03-05T15:03:37.755Z,11.40
2019-03-05T15:06:05.513Z,11.09
2019-03-05T15:08:34.169Z,10.77
2019-03-05T15:11:02.198Z,10.66
2019-03-05T15:13:30.034Z,10.91
2019-03-05T15:15:57.594Z,11.31
2019-03-05T15:18:25.597Z,11.78
2019-03-05T15:20:58.385Z,12.13
2019-03-05T15:23:31.959Z,12.47
2019-03-05T15:25:59.818Z,12.47
2019-03-05T15:28:28.921Z,12.72
2019-03-05T15:30:56.902Z,12.64
2019-03-05T15:33:24.843Z,12.04
2019-03-05T15:35:52.455Z,11.88
2019-03-05T15:38:22.899Z,12.46
2019-03-05T15:40:52.856Z,13.17
2019-03-05T15:43:21.928Z,13.30
2019-03-05T15:45:52.593Z,13.30
2019-03-05T15:48:22.194Z,13.03
2019-03-05T15:50:49.972Z,12.90
2019-03-05T15:53:17.800Z,12.90
2019-03-05T15:55:45.365Z,12.40
2019-03-05T15:58:13.003Z,11.84
2019-03-05T16:00:43.155Z,11.32
2019-03-05T16:03:10.756Z,11.32
2019-03-05T16:05:40.432Z,10.93
2019-03-05T16:08:08.051Z,10.43
2019-03-05T16:10:35.622Z,10.25
2019-03-05T16:13:04.259Z,10.25
2019-03-05T16:15:32.154Z,10.08
2019-03-05T16:18:05.183Z,9.92
2019-03-05T16:20:33.058Z,9.66
2019-03-05T16:23:01.028Z,9.66
2019-03-05T16:25:29.006Z,9.54
2019-03-05T16:28:02.276Z,9.44
2019-03-05T16:30:48.838Z,9.34
2019-03-05T16:33:47.435Z,9.24
2019-03-05T16:36:37.732Z,9.04
2019-03-05T16:39:33.348Z,9.04
2019-03-05T16:42:25.847Z,8.83
2019-03-05T16:45:03.180Z,8.83
2019-03-05T16:47:58.812Z,8.63
2019-03-05T16:50:45.207Z,8.54
2019-03-05T16:53:23.269Z,8.47
2019-03-05T16:56:08.398Z,8.47
2019-03-05T16:58:48.261Z,8.31
2019-03-05T17:01:43.536Z,8.23
2019-03-05T17:04:33.288Z,8.17
2019-03-05T17:07:19.230Z,8.11
2019-03-05T17:10:02.675Z,8.11
2019-03-05T17:12:35.124Z,8.08
2019-03-05T17:15:03.007Z,8.04
2019-03-05T17:17:39.824Z,7.96
2019-03-05T17:20:10.470Z,7.92
2019-03-05T17:22:38.089Z,7.76
2019-03-05T17:25:05.673Z,7.69
2019-03-05T17:27:35.857Z,7.62
2019-03-05T17:30:03.443Z,7.55
2019-03-05T17:32:33.265Z,7.47
2019-03-05T17:35:01.515Z,7.38
2019-03-05T17:37:29.082Z,7.38
2019-03-05T17:39:56.757Z,7.27
2019-03-05T17:42:24.613Z,7.27
2019-03-05T17:44:52.246Z,7.24
2019-03-05T17:47:19.789Z,7.25
2019-03-05T17:49:48.740Z,7.33
2019-03-05T17:52:16.277Z,7.36
2019-03-05T17:54:43.967Z,7.36
2019-03-05T17:57:14.594Z,7.25
2019-03-05T17:59:42.505Z,7.15
2019-03-05T18:02:10.215Z,7.15
2019-03-05T18:04:38.194Z,6.95
2019-03-05T18:07:05.880Z,6.88
2019-03-05T18:09:35.172Z,6.81
2019-03-05T18:12:04.225Z,6.81
2019-03-05T18:14:34.910Z,6.67
2019-03-05T18:17:02.549Z,6.61
2019-03-05T18:19:31.747Z,6.56
2019-03-05T18:22:02.003Z,6.56
2019-03-05T18:24:29.545Z,6.48
2019-03-05T18:26:57.437Z,6.47
2019-03-05T18:29:29.532Z,6.47
2019-03-05T18:31:57.179Z,6.47
2019-03-05T18:34:29.207Z,6.49
2019-03-05T18:36:54.233Z,6.50
2019-03-05T18:39:21.853Z,6.53
2019-03-05T18:41:50.099Z,6.55
2019-03-05T18:44:17.698Z,6.55
2019-03-05T18:46:45.317Z,6.54
2019-03-05T18:49:13.299Z,6.54
2019-03-05T18:51:43.803Z,6.55
2019-03-05T18:54:11.358Z,6.55
2019-03-05T18:56:43.201Z,6.55
2019-03-05T18:59:10.818Z,6.55
2019-03-05T19:01:38.477Z,6.55
2019-03-05T19:04:06.427Z,6.55
2019-03-05T19:06:33.932Z,6.56
2019-03-05T19:09:01.659Z,6.58
2019-03-05T19:11:29.283Z,6.56
2019-03-05T19:13:56.863Z,6.55
2019-03-05T19:16:24.705Z,6.55
2019-03-05T19:18:52.424Z,6.55
2019-03-05T19:21:22.938Z,6.56
2019-03-05T19:23:50.916Z,6.56
2019-03-05T19:26:21.564Z,6.60
2019-03-05T19:28:49.288Z,6.65
2019-03-05T19:31:17.174Z,6.65
2019-03-05T19:33:44.694Z,6.62
2019-03-05T19:36:12.686Z,6.60
2019-03-05T19:38:40.509Z,6.60
2019-03-05T19:41:10.241Z,6.59
2019-03-05T19:43:40.478Z,6.59
2019-03-05T19:46:08.342Z,6.57
2019-03-05T19:48:39.442Z,6.57
2019-03-05T19:51:05.242Z,6.58
2019-03-05T19:53:38.142Z,6.59
2019-03-05T19:56:05.767Z,6.61
2019-03-05T19:58:33.842Z,6.63
2019-03-05T20:01:10.455Z,6.62
2019-03-05T20:03:47.177Z,6.60
2019-03-05T20:06:15.784Z,6.60
2019-03-05T20:08:43.628Z,6.58
2019-03-05T20:11:11.597Z,6.54
2019-03-05T20:13:43.064Z,6.52
2019-03-05T20:16:11.218Z,6.52
2019-03-05T20:18:38.848Z,6.52
2019-03-05T20:21:07.110Z,6.54
2019-03-05T20:23:35.545Z,6.51
2019-03-05T20:26:03.152Z,6.51
2019-03-05T20:28:35.777Z,6.50
2019-03-05T20:31:03.230Z,6.47
2019-03-05T20:36:17.727Z,6.45
2019-03-05T20:38:45.323Z,6.40
2019-03-05T20:41:13.207Z,6.36
2019-03-05T20:43:46.837Z,6.32
2019-03-05T20:46:14.482Z,6.25
2019-03-05T20:48:42.071Z,6.25
2019-03-05T20:51:09.959Z,6.21
2019-03-05T20:53:37.599Z,6.21
2019-03-05T20:56:05.230Z,6.21
2019-03-05T20:58:34.180Z,6.21
2019-03-05T21:01:01.930Z,6.16
2019-03-05T21:03:29.570Z,6.11
2019-03-05T21:06:00.212Z,6.07
2019-03-05T21:08:27.928Z,6.04
2019-03-05T21:10:55.936Z,6.04
2019-03-05T21:13:23.546Z,6.00
2019-03-05T21:15:51.208Z,6.00
2019-03-05T21:18:19.636Z,5.91
2019-03-05T21:20:49.571Z,5.91
2019-03-05T21:23:17.367Z,5.89
2019-03-05T21:25:45.241Z,5.85
2019-03-05T21:28:12.846Z,5.84
2019-03-05T21:30:40.447Z,5.78
2019-03-05T21:33:13.700Z,5.73
2019-03-05T21:35:41.280Z,5.60
2019-03-05T21:38:08.838Z,5.60
2019-03-05T21:40:36.656Z,5.52
2019-03-05T21:43:09.099Z,5.45
2019-03-05T21:45:37.511Z,5.45
2019-03-05T21:48:05.237Z,5.41
2019-03-05T21:50:34.802Z,5.39
2019-03-05T21:53:02.083Z,5.39
2019-03-05T21:55:30.921Z,5.39
2019-03-05T21:58:00.708Z,5.40
2019-03-05T22:00:28.239Z,5.39
2019-03-05T22:02:56.100Z,5.39
2019-03-05T22:05:24.793Z,5.38
2019-03-05T22:07:56.971Z,5.41
2019-03-05T22:10:24.836Z,5.43
2019-03-05T22:12:52.382Z,5.43
2019-03-05T22:15:21.018Z,5.43
2019-03-05T22:17:48.830Z,5.42
2019-03-05T22:20:16.525Z,5.39
2019-03-05T22:22:46.400Z,5.34
2019-03-05T22:25:14.330Z,5.32
2019-03-05T22:27:42.727Z,5.29
2019-03-05T22:30:10.718Z,5.29
2019-03-05T22:32:38.487Z,5.24
2019-03-05T22:35:06.053Z,5.25
2019-03-05T22:37:33.577Z,5.24
2019-03-05T22:40:02.546Z,5.24
2019-03-05T22:42:31.229Z,5.19
2019-03-05T22:44:58.762Z,5.19
2019-03-05T22:47:26.591Z,5.15
2019-03-05T22:50:00.143Z,5.15
2019-03-05T22:52:27.618Z,5.09
2019-03-05T22:54:55.471Z,5.05
2019-03-05T22:57:22.941Z,5.05
2019-03-05T22:59:50.454Z,5.05
2019-03-05T23:02:20.841Z,5.03
2019-03-05T23:04:48.436Z,5.04
2019-03-05T23:07:19.039Z,5.08
2019-03-05T23:09:48.452Z,5.08
2019-03-05T23:12:16.636Z,5.18
2019-03-05T23:14:44.182Z,5.24
2019-03-05T23:17:13.530Z,5.24
2019-03-05T23:19:42.127Z,5.34
2019-03-05T23:22:09.600Z,5.34
2019-03-05T23:24:40.204Z,5.38
2019-03-05T23:27:10.758Z,5.42
2019-03-05T23:29:42.737Z,5.47
2019-03-05T23:32:14.334Z,5.58
2019-03-05T23:34:44.577Z,5.58
2019-03-05T23:37:15.026Z,5.73
2019-03-05T23:39:42.638Z,5.79
2019-03-05T23:42:10.889Z,5.79
2019-03-05T23:44:38.497Z,5.88
2019-03-05T23:47:10.259Z,5.96
2019-03-05T23:49:42.981Z,5.96
2019-03-05T23:52:10.212Z,6.04
2019-03-05T23:54:37.782Z,6.19
2019-03-05T23:57:05.956Z,6.19
2019-03-05T23:59:33.553Z,6.27
